createdAt,value
2022-10-18T00:01:05.720Z,13.50
2022-10-18T00:03:39.008Z,13.46
2022-10-18T00:06:11.043Z,13.41
2022-10-18T00:08:45.599Z,13.38
2022-10-18T00:11:17.252Z,13.36
2022-10-18T00:13:48.914Z,13.32
2022-10-18T00:16:20.685Z,13.30
2022-10-18T00:18:52.526Z,13.29
2022-10-18T00:21:25.617Z,13.26
2022-10-18T00:23:58.451Z,13.21
2022-10-18T00:26:31.093Z,13.08
2022-10-18T00:29:07.132Z,12.96
2022-10-18T00:31:43.992Z,12.84
2022-10-18T00:34:16.719Z,12.79
2022-10-18T00:36:48.767Z,12.80
2022-10-18T00:39:21.561Z,12.85
2022-10-18T00:41:53.308Z,12.86
2022-10-18T00:44:28.964Z,12.81
2022-10-18T00:47:08.491Z,12.78
2022-10-18T00:49:48.147Z,12.80
2022-10-18T00:52:43.831Z,12.82
2022-10-18T00:55:18.119Z,12.81
2022-10-18T00:57:50.299Z,12.83
2022-10-18T01:00:22.195Z,12.88
2022-10-18T01:02:59.040Z,12.95
2022-10-18T01:05:31.358Z,13.00
2022-10-18T01:08:17.657Z,13.03
2022-10-18T01:11:00.126Z,13.09
2022-10-18T01:13:47.698Z,13.11
2022-10-18T01:16:43.017Z,13.09
2022-10-18T01:19:33.405Z,13.07
2022-10-18T01:22:35.187Z,13.06
2022-10-18T01:25:36.651Z,13.07
2022-10-18T01:28:31.581Z,13.07
2022-10-18T01:31:25.684Z,13.09
2022-10-18T01:36:48.578Z,12.86
2022-10-18T01:39:28.151Z,12.64
2022-10-18T01:42:03.175Z,12.55
2022-10-18T01:44:36.757Z,12.51
2022-10-18T01:47:13.382Z,12.58
2022-10-18T01:49:45.164Z,12.60
2022-10-18T01:52:16.939Z,12.62
2022-10-18T01:54:49.238Z,12.69
2022-10-18T01:57:41.106Z,12.74
2022-10-18T02:00:26.605Z,12.79
2022-10-18T02:03:22.553Z,12.82
2022-10-18T02:06:20.161Z,12.83
2022-10-18T02:09:13.682Z,12.81
2022-10-18T02:11:48.694Z,12.72
2022-10-18T02:14:25.883Z,12.68
2022-10-18T02:17:05.644Z,12.63
2022-10-18T02:19:55.575Z,12.60
2022-10-18T02:22:31.620Z,12.60
2022-10-18T02:25:10.361Z,12.61
2022-10-18T02:27:42.096Z,12.66
2022-10-18T02:30:15.815Z,12.58
2022-10-18T02:32:55.611Z,12.39
2022-10-18T02:35:36.277Z,12.37
2022-10-18T02:38:10.186Z,12.38
2022-10-18T02:40:44.633Z,12.36
2022-10-18T02:43:16.287Z,12.40
2022-10-18T02:45:48.025Z,12.40
2022-10-18T02:48:19.683Z,12.39
2022-10-18T02:50:51.436Z,12.43
2022-10-18T02:53:25.901Z,12.41
2022-10-18T02:55:59.580Z,12.48
2022-10-18T02:58:31.185Z,12.55
2022-10-18T03:01:03.043Z,12.62
2022-10-18T03:03:36.837Z,12.60
2022-10-18T03:06:12.363Z,12.59
2022-10-18T03:08:47.921Z,12.59
2022-10-18T03:11:19.765Z,12.57
2022-10-18T03:13:54.235Z,12.52
2022-10-18T03:16:26.228Z,12.46
2022-10-18T03:18:57.860Z,12.49
2022-10-18T03:21:29.625Z,12.50
2022-10-18T03:24:02.241Z,12.53
2022-10-18T03:26:33.932Z,12.54
2022-10-18T03:29:06.131Z,12.55
2022-10-18T03:31:38.043Z,12.57
2022-10-18T03:34:09.737Z,12.58
2022-10-18T03:36:41.722Z,12.59
2022-10-18T03:39:13.532Z,12.57
2022-10-18T03:41:45.236Z,12.60
2022-10-18T03:44:17.003Z,12.59
2022-10-18T03:46:48.685Z,12.60
2022-10-18T03:49:20.388Z,12.59
2022-10-18T03:51:58.164Z,12.61
2022-10-18T03:54:32.623Z,12.64
2022-10-18T03:57:06.938Z,12.68
2022-10-18T03:59:38.634Z,12.69
2022-10-18T04:02:11.545Z,12.69
2022-10-18T04:04:43.285Z,12.65
2022-10-18T04:07:15.309Z,12.59
2022-10-18T04:09:46.966Z,12.54
2022-10-18T04:12:18.726Z,12.50
2022-10-18T04:14:50.539Z,12.43
2022-10-18T04:17:22.217Z,12.28
2022-10-18T04:19:53.958Z,12.26
2022-10-18T04:22:25.779Z,12.26
2022-10-18T04:25:00.141Z,12.24
2022-10-18T04:27:32.448Z,12.22
2022-10-18T04:30:04.794Z,12.18
2022-10-18T04:32:36.616Z,12.14
2022-10-18T04:35:08.632Z,12.08
2022-10-18T04:37:40.439Z,12.00
2022-10-18T04:40:12.525Z,11.99
2022-10-18T04:42:44.398Z,12.03
2022-10-18T04:45:18.449Z,12.02
2022-10-18T04:47:50.948Z,11.99
2022-10-18T04:50:23.852Z,11.99
2022-10-18T04:52:57.083Z,11.95
2022-10-18T04:55:28.731Z,11.94
2022-10-18T04:58:00.491Z,11.96
2022-10-18T05:00:36.466Z,12.00
2022-10-18T05:03:18.804Z,12.07
2022-10-18T05:06:08.039Z,12.02
2022-10-18T05:08:41.741Z,11.99
2022-10-18T05:11:13.801Z,12.05
2022-10-18T05:13:48.564Z,12.03
2022-10-18T05:16:25.719Z,12.06
2022-10-18T05:18:57.418Z,12.12
2022-10-18T05:21:29.030Z,12.16
2022-10-18T05:24:00.921Z,12.13
2022-10-18T05:26:32.939Z,12.04
2022-10-18T05:29:04.736Z,12.01
2022-10-18T05:31:36.662Z,11.99
2022-10-18T05:34:11.200Z,12.02
2022-10-18T05:36:42.980Z,12.04
2022-10-18T05:39:14.889Z,11.98
2022-10-18T05:41:46.582Z,12.00
2022-10-18T05:44:18.259Z,12.05
2022-10-18T05:46:50.132Z,12.10
2022-10-18T05:49:24.838Z,12.13
2022-10-18T05:52:00.246Z,12.14
2022-10-18T05:54:32.777Z,12.09
2022-10-18T05:57:06.690Z,12.00
2022-10-18T05:59:38.790Z,11.93
2022-10-18T06:02:15.058Z,11.91
2022-10-18T06:04:53.470Z,11.78
2022-10-18T06:07:25.842Z,11.76
2022-10-18T06:10:01.923Z,11.78
2022-10-18T06:12:36.550Z,11.81
2022-10-18T06:15:08.604Z,11.85
2022-10-18T06:17:40.251Z,11.86
2022-10-18T06:20:12.448Z,11.76
2022-10-18T06:22:44.258Z,11.76
2022-10-18T06:25:15.939Z,11.82
2022-10-18T06:27:47.621Z,11.94
2022-10-18T06:30:19.372Z,12.06
2022-10-18T06:32:53.766Z,12.15
2022-10-18T06:35:25.523Z,12.22
2022-10-18T06:37:57.754Z,12.25
2022-10-18T06:40:31.044Z,12.27
2022-10-18T06:43:19.604Z,12.26
2022-10-18T06:45:53.405Z,12.29
2022-10-18T06:48:25.203Z,12.25
2022-10-18T06:50:59.232Z,12.24
2022-10-18T06:53:33.852Z,12.30
2022-10-18T06:56:06.822Z,12.37
2022-10-18T06:58:39.171Z,12.39
2022-10-18T07:01:16.464Z,12.42
2022-10-18T07:03:53.346Z,12.41
2022-10-18T07:06:25.090Z,12.45
2022-10-18T07:09:00.653Z,12.53
2022-10-18T07:11:35.381Z,12.58
2022-10-18T07:14:07.307Z,12.62
2022-10-18T07:16:39.034Z,12.65
2022-10-18T07:19:10.986Z,12.69
2022-10-18T07:21:42.679Z,12.74
2022-10-18T07:24:14.450Z,12.80
2022-10-18T07:26:46.428Z,12.82
2022-10-18T07:29:18.199Z,12.75
2022-10-18T07:31:49.887Z,12.75
2022-10-18T07:34:21.620Z,12.75
2022-10-18T07:36:53.369Z,12.72
2022-10-18T07:39:25.134Z,12.73
2022-10-18T07:41:59.837Z,12.67
2022-10-18T07:44:31.467Z,12.69
2022-10-18T07:47:03.324Z,12.71
2022-10-18T07:49:35.120Z,12.80
2022-10-18T07:52:06.872Z,12.85
2022-10-18T07:54:40.619Z,12.92
2022-10-18T07:57:12.659Z,12.86
2022-10-18T07:59:46.452Z,12.85
2022-10-18T08:02:18.161Z,12.86
2022-10-18T08:04:53.283Z,12.92
2022-10-18T08:07:25.350Z,13.03
2022-10-18T08:09:57.015Z,13.11
2022-10-18T08:12:29.174Z,13.18
2022-10-18T08:15:01.007Z,13.20
2022-10-18T08:17:32.966Z,13.27
2022-10-18T08:20:12.285Z,13.32
2022-10-18T08:23:00.320Z,13.34
2022-10-18T08:25:33.096Z,13.35
2022-10-18T08:28:05.117Z,13.28
2022-10-18T08:30:36.911Z,13.34
2022-10-18T08:33:08.964Z,13.34
2022-10-18T08:35:41.042Z,13.35
2022-10-18T08:38:16.598Z,13.44
2022-10-18T08:40:51.554Z,13.42
2022-10-18T08:43:50.141Z,13.51
2022-10-18T08:46:21.891Z,13.70
2022-10-18T08:48:56.606Z,13.70
2022-10-18T08:51:45.452Z,13.65
2022-10-18T08:54:30.613Z,13.70
2022-10-18T08:57:07.294Z,13.82
2022-10-18T08:59:40.737Z,13.93
2022-10-18T09:02:37.584Z,13.92
2022-10-18T09:05:33.721Z,14.05
2022-10-18T09:08:24.095Z,14.16
2022-10-18T09:11:25.904Z,14.26
2022-10-18T09:14:29.344Z,14.48
2022-10-18T09:17:26.759Z,14.74
2022-10-18T09:20:07.468Z,14.97
2022-10-18T09:23:05.340Z,15.28
2022-10-18T09:25:53.513Z,15.67
2022-10-18T09:28:31.140Z,15.92
2022-10-18T09:31:12.225Z,16.34
2022-10-18T09:33:49.124Z,16.84
2022-10-18T09:36:23.556Z,16.88
2022-10-18T09:39:01.770Z,17.26
2022-10-18T09:41:57.941Z,17.71
2022-10-18T09:44:36.091Z,17.91
2022-10-18T09:47:18.764Z,18.06
2022-10-18T09:50:02.762Z,18.48
2022-10-18T09:52:41.901Z,18.85
2022-10-18T09:55:20.313Z,18.85
2022-10-18T09:58:00.900Z,18.80
2022-10-18T10:00:47.022Z,18.70
2022-10-18T10:03:18.800Z,18.59
2022-10-18T10:06:17.641Z,18.67
2022-10-18T10:09:14.902Z,18.68
2022-10-18T10:11:51.549Z,18.73
2022-10-18T10:14:27.286Z,18.74
2022-10-18T10:17:03.343Z,18.49
2022-10-18T10:19:57.152Z,18.27
2022-10-18T10:22:38.553Z,18.06
2022-10-18T10:25:23.022Z,17.92
2022-10-18T10:27:55.216Z,17.85
2022-10-18T10:30:30.408Z,17.84
2022-10-18T10:33:03.105Z,17.79
2022-10-18T10:35:52.998Z,17.77
2022-10-18T10:38:33.512Z,17.70
2022-10-18T10:41:19.838Z,17.59
2022-10-18T10:43:51.948Z,17.64
2022-10-18T10:46:23.698Z,17.55
2022-10-18T10:49:27.931Z,17.43
2022-10-18T10:52:08.475Z,17.45
2022-10-18T10:54:50.387Z,17.63
2022-10-18T10:57:27.403Z,17.75
2022-10-18T11:00:02.568Z,17.85
2022-10-18T11:02:36.791Z,17.92
2022-10-18T11:05:29.922Z,18.02
2022-10-18T11:08:05.198Z,18.11
2022-10-18T11:10:55.018Z,18.19
2022-10-18T11:13:43.801Z,17.95
2022-10-18T11:16:40.379Z,17.85
2022-10-18T11:19:38.808Z,17.97
2022-10-18T11:22:17.181Z,18.15
2022-10-18T11:24:48.984Z,18.15
2022-10-18T11:27:35.063Z,18.25
2022-10-18T11:30:26.538Z,18.28
2022-10-18T11:33:18.101Z,18.36
2022-10-18T11:36:14.771Z,18.51
2022-10-18T11:39:05.390Z,18.63
2022-10-18T11:42:06.024Z,18.70
2022-10-18T11:45:11.042Z,18.75
2022-10-18T11:48:02.479Z,18.85
2022-10-18T11:50:52.694Z,18.93
2022-10-18T11:54:03.260Z,19.00
2022-10-18T11:56:47.119Z,19.11
2022-10-18T11:59:32.052Z,19.23
2022-10-18T12:02:25.466Z,19.19
2022-10-18T12:08:07.150Z,19.24
2022-10-18T12:10:46.003Z,19.33
2022-10-18T12:13:46.094Z,19.43
2022-10-18T12:16:39.017Z,19.38
2022-10-18T12:19:23.713Z,19.32
2022-10-18T12:22:08.603Z,19.39
2022-10-18T12:24:41.140Z,19.47
2022-10-18T12:27:15.887Z,19.58
2022-10-18T12:30:20.796Z,19.79
2022-10-18T12:33:23.218Z,20.03
2022-10-18T12:36:13.300Z,20.35
2022-10-18T12:38:49.124Z,20.65
2022-10-18T12:41:26.541Z,21.00
2022-10-18T12:44:06.220Z,21.15
2022-10-18T12:46:58.846Z,21.24
2022-10-18T12:49:34.032Z,21.32
2022-10-18T12:52:07.457Z,21.30
2022-10-18T12:54:42.892Z,21.31
2022-10-18T12:57:52.518Z,21.37
2022-10-18T13:00:30.342Z,21.35
2022-10-18T13:03:14.360Z,21.37
2022-10-18T13:05:54.438Z,21.33
2022-10-18T13:08:30.472Z,21.41
2022-10-18T13:11:02.614Z,21.52
2022-10-18T13:13:51.121Z,21.65
2022-10-18T13:16:22.978Z,21.81
2022-10-18T13:18:59.660Z,21.86
2022-10-18T13:21:55.420Z,21.78
2022-10-18T13:24:50.971Z,21.90
2022-10-18T13:27:55.349Z,22.01
2022-10-18T13:30:49.197Z,22.08
2022-10-18T13:33:41.761Z,22.12
2022-10-18T13:36:21.795Z,22.12
2022-10-18T13:38:58.332Z,22.01
2022-10-18T13:42:18.732Z,21.86
2022-10-18T13:44:52.823Z,21.75
2022-10-18T13:47:36.750Z,21.65
2022-10-18T13:50:22.309Z,21.67
2022-10-18T13:53:26.159Z,21.71
2022-10-18T13:56:29.362Z,21.50
2022-10-18T13:59:24.252Z,21.24
2022-10-18T14:02:50.489Z,21.00
2022-10-18T14:06:00.725Z,20.94
2022-10-18T14:08:42.171Z,20.41
2022-10-18T14:11:35.311Z,20.04
2022-10-18T14:14:23.506Z,19.76
2022-10-18T14:17:26.334Z,19.21
2022-10-18T14:20:13.592Z,18.80
2022-10-18T14:23:06.959Z,18.47
2022-10-18T14:25:39.339Z,18.05
2022-10-18T14:28:31.357Z,17.70
2022-10-18T14:31:18.338Z,17.27
2022-10-18T14:33:58.091Z,16.82
2022-10-18T14:36:41.441Z,16.51
2022-10-18T14:39:23.960Z,16.20
2022-10-18T14:41:57.451Z,16.13
2022-10-18T14:44:31.864Z,16.12
2022-10-18T14:47:16.295Z,15.98
2022-10-18T14:49:49.120Z,15.95
2022-10-18T14:52:29.478Z,16.24
2022-10-18T14:55:03.691Z,16.42
2022-10-18T14:57:37.706Z,16.54
2022-10-18T15:02:58.532Z,16.81
2022-10-18T15:05:30.914Z,16.83
2022-10-18T15:08:03.054Z,16.81
2022-10-18T15:10:35.283Z,16.71
2022-10-18T15:13:11.149Z,16.66
2022-10-18T15:15:44.668Z,16.62
2022-10-18T15:18:22.286Z,16.53
2022-10-18T15:21:25.206Z,16.43
2022-10-18T15:24:20.862Z,16.34
2022-10-18T15:26:54.951Z,16.36
2022-10-18T15:29:28.059Z,16.29
2022-10-18T15:32:14.770Z,16.33
2022-10-18T15:34:46.746Z,16.34
2022-10-18T15:37:45.727Z,16.35
2022-10-18T15:40:24.463Z,16.33
2022-10-18T15:42:59.094Z,16.37
2022-10-18T15:45:34.636Z,16.35
2022-10-18T15:48:06.265Z,16.35
2022-10-18T15:51:06.202Z,16.24
2022-10-18T15:53:49.751Z,16.18
2022-10-18T15:56:35.927Z,16.17
2022-10-18T15:59:30.918Z,16.11
2022-10-18T16:02:02.876Z,16.15
2022-10-18T16:04:37.717Z,16.22
2022-10-18T16:07:11.890Z,16.18
2022-10-18T16:09:43.556Z,16.22
2022-10-18T16:12:18.492Z,16.22
2022-10-18T16:14:50.101Z,16.17
2022-10-18T16:17:21.903Z,16.08
2022-10-18T16:19:53.561Z,16.11
2022-10-18T16:22:25.456Z,16.16
2022-10-18T16:24:57.174Z,16.22
2022-10-18T16:27:28.872Z,16.24
2022-10-18T16:30:00.628Z,16.14
2022-10-18T16:32:32.579Z,16.09
2022-10-18T16:35:06.378Z,16.06
2022-10-18T16:37:39.686Z,16.08
2022-10-18T16:40:24.027Z,16.21
2022-10-18T16:42:55.840Z,16.16
2022-10-18T16:45:27.494Z,16.05
2022-10-18T16:47:59.196Z,15.89
2022-10-18T16:50:34.634Z,15.77
2022-10-18T16:53:07.291Z,15.73
2022-10-18T16:55:40.534Z,15.67
2022-10-18T16:58:17.999Z,15.63
2022-10-18T17:00:51.162Z,15.50
2022-10-18T17:03:23.263Z,15.43
2022-10-18T17:05:56.294Z,15.41
2022-10-18T17:08:28.412Z,15.38
2022-10-18T17:11:02.135Z,15.30
2022-10-18T17:13:34.075Z,15.27
2022-10-18T17:16:06.694Z,15.28
2022-10-18T17:18:38.448Z,15.23
2022-10-18T17:21:10.142Z,15.21
2022-10-18T17:23:42.156Z,15.15
2022-10-18T17:26:28.411Z,15.13
2022-10-18T17:29:04.939Z,15.10
2022-10-18T17:31:36.923Z,15.08
2022-10-18T17:34:09.261Z,15.02
2022-10-18T17:36:41.019Z,14.98
2022-10-18T17:39:13.009Z,14.98
2022-10-18T17:41:45.310Z,14.98
2022-10-18T17:44:17.153Z,15.02
2022-10-18T17:46:48.901Z,15.03
2022-10-18T17:49:22.267Z,15.03
2022-10-18T17:51:54.078Z,15.03
2022-10-18T17:54:25.760Z,15.03
2022-10-18T17:56:57.469Z,15.05
2022-10-18T17:59:29.471Z,15.06
2022-10-18T18:02:01.224Z,15.06
2022-10-18T18:04:32.938Z,15.04
2022-10-18T18:07:04.723Z,15.03
2022-10-18T18:09:36.479Z,14.99
2022-10-18T18:12:08.098Z,14.96
2022-10-18T18:14:39.944Z,14.94
2022-10-18T18:17:12.543Z,14.94
2022-10-18T18:19:44.313Z,14.85
2022-10-18T18:22:16.083Z,14.84
2022-10-18T18:24:47.864Z,14.87
2022-10-18T18:27:19.482Z,14.89
2022-10-18T18:29:51.138Z,14.92
2022-10-18T18:32:22.882Z,14.92
2022-10-18T18:34:55.012Z,14.90
2022-10-18T18:37:26.767Z,14.93
2022-10-18T18:39:58.520Z,14.94
2022-10-18T18:42:30.306Z,14.95
2022-10-18T18:45:02.307Z,14.97
2022-10-18T18:47:35.577Z,14.96
2022-10-18T18:50:07.955Z,14.96
2022-10-18T18:52:39.621Z,14.95
2022-10-18T18:55:11.449Z,14.91
2022-10-18T18:57:45.861Z,14.87
2022-10-18T19:00:17.698Z,14.88
2022-10-18T19:02:49.406Z,14.88
2022-10-18T19:05:21.184Z,14.88
2022-10-18T19:07:52.911Z,14.92
2022-10-18T19:10:24.655Z,14.95
2022-10-18T19:12:56.597Z,14.96
2022-10-18T19:15:28.507Z,14.98
2022-10-18T19:18:00.226Z,14.99
2022-10-18T19:20:32.005Z,15.00
2022-10-18T19:23:03.732Z,15.02
2022-10-18T19:25:35.523Z,15.01
2022-10-18T19:28:07.324Z,15.00
2022-10-18T19:30:39.078Z,14.96
2022-10-18T19:33:12.097Z,14.89
2022-10-18T19:35:43.753Z,14.85
2022-10-18T19:38:15.619Z,14.83
2022-10-18T19:40:51.562Z,14.78
2022-10-18T19:43:25.262Z,14.72
2022-10-18T19:46:01.370Z,14.70
2022-10-18T19:48:33.033Z,14.67
2022-10-18T19:51:10.394Z,14.63
2022-10-18T19:53:43.249Z,14.60
2022-10-18T19:56:21.369Z,14.56
2022-10-18T19:58:53.776Z,14.54
2022-10-18T20:01:27.332Z,14.50
2022-10-18T20:03:59.537Z,14.46
2022-10-18T20:06:32.368Z,14.42
2022-10-18T20:09:05.622Z,14.39
2022-10-18T20:11:37.763Z,14.37
2022-10-18T20:14:10.830Z,14.31
2022-10-18T20:16:42.583Z,14.28
2022-10-18T20:19:16.976Z,14.24
2022-10-18T20:21:48.790Z,14.20
2022-10-18T20:24:20.441Z,14.19
2022-10-18T20:29:25.545Z,14.14
2022-10-18T20:31:57.264Z,14.09
2022-10-18T20:34:31.913Z,14.05
2022-10-18T20:37:03.437Z,14.02
2022-10-18T20:39:35.250Z,13.98
2022-10-18T20:42:06.955Z,13.96
2022-10-18T20:44:41.068Z,13.92
2022-10-18T20:47:12.843Z,13.87
2022-10-18T20:49:44.555Z,13.87
2022-10-18T20:52:16.355Z,13.86
2022-10-18T20:54:48.214Z,13.84
2022-10-18T20:57:20.071Z,13.83
2022-10-18T20:59:52.774Z,13.80
2022-10-18T21:02:24.534Z,13.75
2022-10-18T21:04:56.345Z,13.74
2022-10-18T21:07:29.401Z,13.70
2022-10-18T21:10:01.106Z,13.68
2022-10-18T21:12:35.019Z,13.66
2022-10-18T21:15:07.596Z,13.63
2022-10-18T21:17:39.368Z,13.63
2022-10-18T21:20:11.742Z,13.60
2022-10-18T21:22:43.500Z,13.59
2022-10-18T21:25:15.269Z,13.57
2022-10-18T21:27:47.740Z,13.54
2022-10-18T21:30:19.414Z,13.52
2022-10-18T21:32:52.590Z,13.50
2022-10-18T21:35:24.245Z,13.45
2022-10-18T21:37:58.074Z,13.42
2022-10-18T21:40:29.871Z,13.39
2022-10-18T21:43:01.688Z,13.37
2022-10-18T21:45:36.383Z,13.36
2022-10-18T21:48:08.040Z,13.31
2022-10-18T21:50:39.654Z,13.26
2022-10-18T21:53:11.370Z,13.24
2022-10-18T21:55:43.113Z,13.20
2022-10-18T21:58:14.917Z,13.18
2022-10-18T22:00:49.784Z,13.17
2022-10-18T22:03:23.371Z,13.16
2022-10-18T22:06:04.896Z,13.15
2022-10-18T22:08:36.589Z,13.16
2022-10-18T22:11:09.176Z,13.16
2022-10-18T22:13:41.666Z,13.18
2022-10-18T22:16:15.880Z,13.18
2022-10-18T22:18:49.061Z,13.19
2022-10-18T22:21:20.872Z,13.21
2022-10-18T22:23:54.332Z,13.22
2022-10-18T22:26:32.278Z,13.24
2022-10-18T22:29:15.686Z,13.24
2022-10-18T22:31:49.964Z,13.25
2022-10-18T22:34:24.373Z,13.27
2022-10-18T22:36:56.389Z,13.29
2022-10-18T22:39:28.067Z,13.32
2022-10-18T22:42:01.246Z,13.34
2022-10-18T22:44:36.459Z,13.37
2022-10-18T22:47:08.141Z,13.40
2022-10-18T22:49:39.883Z,13.43
2022-10-18T22:52:11.550Z,13.44
2022-10-18T22:54:43.246Z,13.45
2022-10-18T22:57:14.926Z,13.45
2022-10-18T22:59:46.651Z,13.46
2022-10-18T23:02:18.306Z,13.47
2022-10-18T23:04:50.020Z,13.42
2022-10-18T23:07:21.804Z,13.31
2022-10-18T23:09:53.475Z,13.33
2022-10-18T23:12:25.240Z,13.38
2022-10-18T23:14:57.121Z,13.38
2022-10-18T23:17:28.833Z,13.39
2022-10-18T23:20:00.848Z,13.44
2022-10-18T23:22:33.059Z,13.45
2022-10-18T23:25:08.251Z,13.45
2022-10-18T23:27:39.984Z,13.43
2022-10-18T23:30:12.296Z,13.41
2022-10-18T23:32:44.086Z,13.37
2022-10-18T23:35:15.886Z,13.38
2022-10-18T23:37:47.630Z,13.38
2022-10-18T23:40:19.303Z,13.25
2022-10-18T23:42:51.025Z,13.26
2022-10-18T23:45:22.829Z,13.28
2022-10-18T23:47:54.442Z,13.29
2022-10-18T23:50:26.094Z,13.30
2022-10-18T23:52:57.887Z,13.34
2022-10-18T23:55:29.679Z,13.38
2022-10-18T23:58:02.078Z,13.41
